Observation data for Plains on 03/05/2021      Previous  Date  Next       Current Mesonet Observations  Soil Data  Daily Summary Page  Observations in Plain Language
KPPS 050600Z 28009KT 07/M05 A3001 RMK A01 T00731053  RH  040%=      5-min Rain = 0
KPPS 050605Z 29010KT 08/M05 A3001 RMK A01 T00751053  RH  040%=      5-min Rain = 0
KPPS 050610Z 30013G18KT 09/M05 A30 RMK A01 T00891050  RH  037%=      5-min Rain = 0
KPPS 050615Z 30017G23KT 11/M05 A30 RMK A01 T01051051  RH  033%=      5-min Rain = 0
KPPS 050620Z 30018KT 11/M05 A30 RMK A01 T01111051  RH  032%=      5-min Rain = 0
KPPS 050625Z 30019G24KT 11/M05 A30 RMK A01 T01111052  RH  032%=      5-min Rain = 0
KPPS 050630Z 30021G26KT 11/M05 A30 RMK A01 T01121052  RH  031%=      5-min Rain = 0
KPPS 050635Z 30019G24KT 11/M05 A30 RMK A01 T01121053  RH  031%=      5-min Rain = 0
KPPS 050640Z 30019KT 11/M05 A30 RMK A01 T01111054  RH  031%=      5-min Rain = 0
KPPS 050645Z 30019KT 11/M05 A30 RMK A01 T01101054  RH  031%=      5-min Rain = 0
KPPS 050650Z 30017G23KT 11/M05 A30 RMK A01 T01071054  RH  032%=      5-min Rain = 0
KPPS 050655Z 30017G22KT 11/M06 A3001 RMK A01 T01071055  RH  032%=      5-min Rain = 0
KPPS 050700Z 29017KT 11/M06 A3001 RMK A01 T01061056  RH  032%=      5-min Rain = 0
KPPS 050705Z 29017KT 11/M06 A3001 RMK A01 T01051056  RH  032%=      5-min Rain = 0
KPPS 050710Z 29016G21KT 10/M06 A3001 RMK A01 T01041055  RH  032%=      5-min Rain = 0
KPPS 050715Z 29016KT 10/M05 A3001 RMK A01 T01011054  RH  033%=      5-min Rain = 0
KPPS 050720Z 29015G20KT 10/M05 A3001 RMK A01 T00991054  RH  034%=      5-min Rain = 0
KPPS 050725Z 29016KT 10/M05 A3001 RMK A01 T00971053  RH  034%=      5-min Rain = 0
KPPS 050730Z 29015KT 10/M05 A3002 RMK A01 T00961053  RH  035%=      5-min Rain = 0
KPPS 050735Z 29014KT 09/M05 A3002 RMK A01 T00931054  RH  035%=      5-min Rain = 0
KPPS 050740Z 28013KT 09/M05 A3002 RMK A01 T00891054  RH  036%=      5-min Rain = 0
KPPS 050745Z 29013KT 09/M05 A3002 RMK A01 T00861054  RH  037%=      5-min Rain = 0
KPPS 050750Z 29014KT 09/M05 A3002 RMK A01 T00861053  RH  037%=      5-min Rain = 0
KPPS 050755Z 29014KT 09/M05 A3002 RMK A01 T00871053  RH  037%=      5-min Rain = 0
KPPS 050800Z 28014KT 09/M05 A3002 RMK A01 T00851053  RH  037%=      5-min Rain = 0
KPPS 050805Z 29013KT 08/M05 A3002 RMK A01 T00821053  RH  038%=      5-min Rain = 0
KPPS 050810Z 29014KT 08/M05 A3002 RMK A01 T00831052  RH  038%=      5-min Rain = 0
KPPS 050815Z 29014KT 08/M05 A3002 RMK A01 T00821052  RH  038%=      5-min Rain = 0
KPPS 050820Z 29014KT 08/M05 A3002 RMK A01 T00821051  RH  039%=      5-min Rain = 0
KPPS 050825Z 29014KT 08/M05 A3002 RMK A01 T00811051  RH  039%=      5-min Rain = 0
KPPS 050830Z 28014KT 08/M05 A3002 RMK A01 T00791051  RH  039%=      5-min Rain = 0
KPPS 050835Z 29014KT 08/M05 A3002 RMK A01 T00781051  RH  040%=      5-min Rain = 0
KPPS 050840Z 29014G19KT 08/M05 A3003 RMK A01 T00781051  RH  040%=      5-min Rain = 0
KPPS 050845Z 29014KT 08/M05 A3003 RMK A01 T00761051  RH  040%=      5-min Rain = 0
KPPS 050850Z 29013KT 08/M05 A3003 RMK A01 T00751051  RH  040%=      5-min Rain = 0
KPPS 050855Z 29012KT 07/M05 A3003 RMK A01 T00741052  RH  041%=      5-min Rain = 0
KPPS 050900Z 30013KT 07/M05 A3003 RMK A01 T00741051  RH  041%=      5-min Rain = 0
KPPS 050905Z 30014KT 08/M05 A3004 RMK A01 T00761051  RH  040%=      5-min Rain = 0
KPPS 050910Z 30014KT 08/M05 A3004 RMK A01 T00771052  RH  040%=      5-min Rain = 0
KPPS 050915Z 31012KT 08/M05 A3004 RMK A01 T00751052  RH  040%=      5-min Rain = 0
KPPS 050920Z 31011KT 07/M05 A3004 RMK A01 T00701053  RH  041%=      5-min Rain = 0
KPPS 050925Z 32010KT 07/M05 A3004 RMK A01 T00661053  RH  042%=      5-min Rain = 0
KPPS 050930Z 32012KT 06/M05 A3004 RMK A01 T00621053  RH  043%=      5-min Rain = 0
KPPS 050935Z 32011KT 06/M05 A3004 RMK A01 T00611053  RH  044%=      5-min Rain = 0
KPPS 050940Z 32011KT 06/M05 A3004 RMK A01 T00601053  RH  044%=      5-min Rain = 0
KPPS 050945Z 32010KT 06/M05 A3004 RMK A01 T00601052  RH  045%=      5-min Rain = 0
KPPS 050950Z 31010KT 06/M05 A3004 RMK A01 T00611052  RH  044%=      5-min Rain = 0
KPPS 050955Z 31011KT 06/M05 A3004 RMK A01 T00631052  RH  044%=      5-min Rain = 0
KPPS 051000Z 31011KT 06/M05 A3004 RMK A01 T00621052  RH  044%=      5-min Rain = 0
KPPS 051005Z 31010KT 06/M05 A3004 RMK A01 T00611052  RH  044%=      5-min Rain = 0
KPPS 051010Z 31011KT 06/M05 A3004 RMK A01 T00601051  RH  045%=      5-min Rain = 0
KPPS 051015Z 31011KT 06/M05 A3004 RMK A01 T00591051  RH  045%=      5-min Rain = 0
KPPS 051020Z 31012KT 06/M05 A3004 RMK A01 T00591051  RH  045%=      5-min Rain = 0
KPPS 051025Z 31012G17KT 06/M05 A3004 RMK A01 T00581051  RH  045%=      5-min Rain = 0
KPPS 051030Z 32013KT 06/M05 A3004 RMK A01 T00571050  RH  046%=      5-min Rain = 0
KPPS 051035Z 32014KT 06/M05 A3005 RMK A01 T00571049  RH  046%=      5-min Rain = 0
KPPS 051040Z 32014KT 06/M05 A3005 RMK A01 T00581048  RH  047%=      5-min Rain = 0
KPPS 051045Z 32013KT 06/M05 A3005 RMK A01 T00571048  RH  047%=      5-min Rain = 0
KPPS 051050Z 31013KT 06/M05 A3006 RMK A01 T00581047  RH  047%=      5-min Rain = 0
KPPS 051055Z 32013G18KT 06/M05 A3006 RMK A01 T00601045  RH  047%=      5-min Rain = 0
KPPS 051100Z 32013G18KT 07/M04 A3006 RMK A01 T00651041  RH  047%=      5-min Rain = 0
KPPS 051105Z 32012KT 07/M04 A3006 RMK A01 T00681036  RH  048%=      5-min Rain = 0
KPPS 051110Z 32012KT 07/M03 A3006 RMK A01 T00691033  RH  049%=      5-min Rain = 0
KPPS 051115Z 32012KT 07/M03 A3007 RMK A01 T00681032  RH  049%=      5-min Rain = 0
KPPS 051120Z 31011KT 07/M03 A3007 RMK A01 T00681032  RH  049%=      5-min Rain = 0
KPPS 051125Z 31011KT 07/M03 A3007 RMK A01 T00671032  RH  050%=      5-min Rain = 0
KPPS 051130Z 31012KT 07/M03 A3007 RMK A01 T00671031  RH  050%=      5-min Rain = 0
KPPS 051135Z 31013G18KT 07/M03 A3007 RMK A01 T00681030  RH  050%=      5-min Rain = 0
KPPS 051140Z 31013KT 07/M03 A3006 RMK A01 T00691029  RH  050%=      5-min Rain = 0
KPPS 051145Z 31014KT 07/M03 A3007 RMK A01 T00681027  RH  051%=      5-min Rain = 0
KPPS 051150Z 32015KT 07/M03 A3007 RMK A01 T00671027  RH  051%=      5-min Rain = 0
KPPS 051155Z 32015G20KT 07/M03 A3007 RMK A01 T00671026  RH  052%=      5-min Rain = 0
KPPS 051200Z 32014KT 07/M03 A3007 RMK A01 T00651026  RH  052%=      5-min Rain = 0
KPPS 051205Z 32014G19KT 07/M03 A3008 RMK A01 T00651025  RH  053%=      5-min Rain = 0
KPPS 051210Z 32015G22KT 07/M02 A3008 RMK A01 T00671023  RH  053%=      5-min Rain = 0
KPPS 051215Z 32015G20KT 07/M02 A3008 RMK A01 T00691021  RH  053%=      5-min Rain = 0
KPPS 051220Z 32016G23KT 07/M02 A3008 RMK A01 T00711019  RH  053%=      5-min Rain = 0
KPPS 051225Z 32017G22KT 07/M02 A3008 RMK A01 T00721018  RH  053%=      5-min Rain = 0
KPPS 051230Z 32020G27KT 07/M02 A3008 RMK A01 T00741017  RH  053%=      5-min Rain = 0
KPPS 051235Z 33021G27KT 08/M02 A3008 RMK A01 T00751016  RH  053%=      5-min Rain = 0
KPPS 051240Z 33021G26KT 07/M02 A3008 RMK A01 T00741016  RH  053%=      5-min Rain = 0
KPPS 051245Z 33022KT 08/M02 A3009 RMK A01 T00751016  RH  053%=      5-min Rain = 0
KPPS 051250Z 33021G26KT 07/M02 A3009 RMK A01 T00741016  RH  053%=      5-min Rain = 0
KPPS 051255Z 33024G31KT 07/M02 A301 RMK A01 T00741015  RH  054%=      5-min Rain = 0
KPPS 051300Z 34023G28KT 07/M01 A301 RMK A01 T00741012  RH  055%=      5-min Rain = 0
KPPS 051305Z 33022KT 07/M01 A301 RMK A01 T00741011  RH  055%=      5-min Rain = 0
KPPS 051310Z 33022G27KT 07/M01 A301 RMK A01 T00741009  RH  056%=      5-min Rain = 0
KPPS 051315Z 33021G28KT 08/M01 A301 RMK A01 T00751009  RH  056%=      5-min Rain = 0
KPPS 051320Z 33021G30KT 07/M01 A3011 RMK A01 T00721009  RH  057%=      5-min Rain = 0
KPPS 051325Z 33023G28KT 07/M01 A3011 RMK A01 T00741008  RH  057%=      5-min Rain = 0
KPPS 051330Z 33020G25KT 07/M01 A3011 RMK A01 T00731009  RH  056%=      5-min Rain = 0
KPPS 051335Z 32018KT 07/M01 A3012 RMK A01 T00741009  RH  056%=      5-min Rain = 0
KPPS 051340Z 32016G22KT 07/M01 A3012 RMK A01 T00741010  RH  056%=      5-min Rain = 0
KPPS 051345Z 32016G21KT 07/M01 A3012 RMK A01 T00741010  RH  056%=      5-min Rain = 0
KPPS 051350Z 32017G22KT 07/M01 A3012 RMK A01 T00741009  RH  056%=      5-min Rain = 0
KPPS 051355Z 32017G23KT 07/M01 A3012 RMK A01 T00741008  RH  057%=      5-min Rain = 0
KPPS 051400Z 32017G22KT 07/M01 A3013 RMK A01 T00741007  RH  057%=      5-min Rain = 0
KPPS 051405Z 32016G21KT 08/M01 A3013 RMK A01 T00751006  RH  057%=      5-min Rain = 0
KPPS 051410Z 32017KT 08/M01 A3013 RMK A01 T00761005  RH  057%=      5-min Rain = 0
KPPS 051415Z 32015KT 08/M00 A3013 RMK A01 T00781004  RH  057%=      5-min Rain = 0
KPPS 051420Z 33017G24KT 08/M00 A3014 RMK A01 T00801001  RH  057%=      5-min Rain = 0
KPPS 051425Z 33021G29KT 09/01 A3014 RMK A01 T00850005  RH  058%=      5-min Rain = 0
KPPS 051430Z 34026G32KT 09/01 A3014 RMK A01 T00910012  RH  058%=      5-min Rain = 0
KPPS 051435Z 34027G35KT 09/02 A3014 RMK A01 T00930016  RH  060%=      5-min Rain = 0
KPPS 051440Z 34025G36KT 09/02 A3015 RMK A01 T00920017  RH  060%=      5-min Rain = 0
KPPS 051445Z 34026G34KT 09/02 A3015 RMK A01 T00920020  RH  061%=      5-min Rain = 0
KPPS 051450Z 34028G37KT 10/02 A3015 RMK A01 T00950023  RH  062%=      5-min Rain = 0
KPPS 051455Z 34026G36KT 10/02 A3016 RMK A01 T00970024  RH  062%=      5-min Rain = 0
KPPS 051500Z 34027G34KT 10/02 A3016 RMK A01 T00980023  RH  061%=      5-min Rain = 0
KPPS 051505Z 34029G38KT 10/02 A3017 RMK A01 T00970022  RH  060%=      5-min Rain = 0
KPPS 051510Z 34028G37KT 10/02 A3017 RMK A01 T00990022  RH  060%=      5-min Rain = 0
KPPS 051515Z 34032G41KT 10/02 A3017 RMK A01 T00980022  RH  060%=      5-min Rain = 0
KPPS 051520Z 35031G38KT 10/02 A3017 RMK A01 T00970021  RH  060%=      5-min Rain = 0
KPPS 051525Z 34028G33KT 10/02 A3017 RMK A01 T00990021  RH  059%=      5-min Rain = 0
KPPS 051530Z 34026G35KT 10/02 A3018 RMK A01 T01020022  RH  059%=      5-min Rain = 0
KPPS 051535Z 34031G39KT 10/02 A3018 RMK A01 T01020021  RH  058%=      5-min Rain = 0
KPPS 051540Z 34032G40KT 11/02 A3018 RMK A01 T01050022  RH  057%=      5-min Rain = 0
KPPS 051545Z 34029G39KT 11/02 A3018 RMK A01 T01050022  RH  057%=      5-min Rain = 0
KPPS 051550Z 34031G39KT 11/02 A3018 RMK A01 T01080024  RH  057%=      5-min Rain = 0
KPPS 051555Z 35031G39KT 11/02 A3018 RMK A01 T01110024  RH  056%=      5-min Rain = 0
KPPS 051600Z 35030G42KT 11/02 A3018 RMK A01 T01120024  RH  055%=      5-min Rain = 0
KPPS 051605Z 35030G36KT 11/02 A3018 RMK A01 T01130024  RH  055%=      5-min Rain = 0
KPPS 051610Z 35029G38KT 11/03 A3018 RMK A01 T01140025  RH  055%=      5-min Rain = 0
KPPS 051615Z 35031G39KT 11/03 A3019 RMK A01 T01140026  RH  055%=      5-min Rain = 0
KPPS 051620Z 34034G42KT 11/03 A3019 RMK A01 T01100027  RH  057%=      5-min Rain = 0
KPPS 051625Z 35032G38KT 11/03 A3019 RMK A01 T01080029  RH  059%=      5-min Rain = 0
KPPS 051630Z 34030G39KT 11/03 A3019 RMK A01 T01110029  RH  058%=      5-min Rain = 0
KPPS 051635Z 35030G40KT 11/03 A3019 RMK A01 T01130030  RH  058%=      5-min Rain = 0
KPPS 051640Z 35032G42KT 11/03 A302 RMK A01 T01070029  RH  060%=      5-min Rain = 0
KPPS 051645Z 36027G33KT 11/03 A302 RMK A01 T01090032  RH  060%=      5-min Rain = 0
KPPS 051650Z 35032G39KT 11/03 A302 RMK A01 T01080031  RH  060%=      5-min Rain = 0
KPPS 051655Z 35031G38KT 11/03 A302 RMK A01 T01060032  RH  061%=      5-min Rain = 0
KPPS 051700Z 36030G37KT 11/03 A302 RMK A01 T01070034  RH  062%=      5-min Rain = 0
KPPS 051705Z 00032G39KT 11/03 A302 RMK A01 T01060034  RH  062%=      5-min Rain = 0
KPPS 051710Z 36029G36KT 11/03 A3021 RMK A01 T01060033  RH  062%=      5-min Rain = 0
KPPS 051715Z 36028G35KT 11/03 A3021 RMK A01 T01050033  RH  062%=      5-min Rain = 0
KPPS 051720Z 00027G34KT 11/04 A3021 RMK A01 T01070035  RH  062%=      5-min Rain = 0
KPPS 051725Z 00028G33KT 11/04 A3021 RMK A01 T01050035  RH  063%=      5-min Rain = 0
KPPS 051730Z 01027G34KT 10/04 A3021 RMK A01 T01040037  RH  064%=      5-min Rain = 0
KPPS 051735Z 01027G35KT 10/04 A3022 RMK A01 T01010036  RH  065%=      5-min Rain = 0
KPPS 051740Z 01029G36KT 10/04 A3022 RMK A01 T00970036  RH  067%=      5-min Rain = 0
KPPS 051745Z 00027G36KT 10/04 A3022 RMK A01 T00960036  RH  068%=      5-min Rain = 0
KPPS 051750Z 00023G30KT 10/04 A3022 RMK A01 T01040039  RH  066%=      5-min Rain = 0
KPPS 051755Z 00027G35KT 11/04 A3022 RMK A01 T01110038  RH  062%=      5-min Rain = 0
KPPS 051800Z 01025G34KT 11/04 A3023 RMK A01 T01070036  RH  062%=      5-min Rain = 0
KPPS 051805Z 01025G33KT 10/03 A3023 RMK A01 T01040034  RH  063%=      5-min Rain = 0
KPPS 051810Z 01024G34KT 11/04 A3023 RMK A01 T01050035  RH  063%=      5-min Rain = 0
KPPS 051815Z 01023G34KT 11/04 A3023 RMK A01 T01060036  RH  063%=      5-min Rain = 0
KPPS 051820Z 00023G30KT 11/04 A3023 RMK A01 T01110036  RH  061%=      5-min Rain = 0
KPPS 051825Z 00026G34KT 11/04 A3023 RMK A01 T01120035  RH  060%=      5-min Rain = 0
KPPS 051830Z 01024G32KT 12/03 A3023 RMK A01 T01150034  RH  059%=      5-min Rain = 0
KPPS 051835Z 00026G32KT 12/04 A3023 RMK A01 T01190035  RH  057%=      5-min Rain = 0
KPPS 051840Z 36027G36KT 12/04 A3023 RMK A01 T01220035  RH  056%=      5-min Rain = 0
KPPS 051845Z 36026G32KT 12/03 A3023 RMK A01 T01190034  RH  057%=      5-min Rain = 0
KPPS 051850Z 00026G33KT 12/03 A3023 RMK A01 T01220034  RH  056%=      5-min Rain = 0
KPPS 051855Z 36022G30KT 12/03 A3023 RMK A01 T01190033  RH  057%=      5-min Rain = 0
KPPS 051900Z 00023G31KT 12/03 A3023 RMK A01 T01220034  RH  056%=      5-min Rain = 0
KPPS 051905Z 00024G31KT 12/03 A3023 RMK A01 T01190033  RH  056%=      5-min Rain = 0
KPPS 051910Z 36024G32KT 12/03 A3023 RMK A01 T01180032  RH  057%=      5-min Rain = 0
KPPS 051915Z 36024G29KT 12/03 A3023 RMK A01 T01180031  RH  056%=      5-min Rain = 0
KPPS 051920Z 00024G29KT 12/03 A3023 RMK A01 T01180030  RH  056%=      5-min Rain = 0
KPPS 051925Z 36023G28KT 12/03 A3023 RMK A01 T01170032  RH  057%=      5-min Rain = 0
KPPS 051930Z 00023KT 12/03 A3023 RMK A01 T01230033  RH  055%=      5-min Rain = 0
KPPS 051935Z 00023G32KT 12/03 A3023 RMK A01 T01210032  RH  055%=      5-min Rain = 0
KPPS 051940Z 01020G27KT 12/03 A3023 RMK A01 T01210030  RH  055%=      5-min Rain = 0
KPPS 051945Z 01021G27KT 12/03 A3023 RMK A01 T01180030  RH  056%=      5-min Rain = 0
KPPS 051950Z 01024G31KT 12/03 A3023 RMK A01 T01190030  RH  055%=      5-min Rain = 0
KPPS 051955Z 01018G26KT 12/03 A3023 RMK A01 T01220031  RH  055%=      5-min Rain = 0
KPPS 052000Z 02018G26KT 12/03 A3023 RMK A01 T01190030  RH  055%=      5-min Rain = 0
KPPS 052005Z 00016G22KT 12/03 A3023 RMK A01 T01200033  RH  056%=      5-min Rain = 0
KPPS 052010Z 01022G28KT 12/03 A3023 RMK A01 T01200030  RH  055%=      5-min Rain = 0
KPPS 052015Z 01018G26KT 12/03 A3023 RMK A01 T01190028  RH  055%=      5-min Rain = 0
KPPS 052020Z 01020G28KT 12/03 A3022 RMK A01 T01190030  RH  055%=      5-min Rain = 0
KPPS 052025Z 01018G27KT 12/03 A3022 RMK A01 T01220029  RH  054%=      5-min Rain = 0
KPPS 052030Z 36019G26KT 12/03 A3022 RMK A01 T01240032  RH  054%=      5-min Rain = 0
KPPS 052035Z 36019G25KT 13/03 A3022 RMK A01 T01260033  RH  054%=      5-min Rain = 0
KPPS 052040Z 01021G28KT 13/03 A3022 RMK A01 T01260030  RH  053%=      5-min Rain = 0
KPPS 052045Z 01019G24KT 13/03 A3022 RMK A01 T01250027  RH  052%=      5-min Rain = 0
KPPS 052050Z 01017G24KT 13/03 A3022 RMK A01 T01270027  RH  052%=      5-min Rain = 0
KPPS 052055Z 02019G26KT 13/03 A3023 RMK A01 T01250026  RH  052%=      5-min Rain = 0
KPPS 052100Z 01019G24KT 12/02 A3023 RMK A01 T01230023  RH  051%=      5-min Rain = 0
KPPS 052105Z 01021G28KT 12/03 A3023 RMK A01 T01210026  RH  053%=      5-min Rain = 0
KPPS 052110Z 01019G25KT 12/02 A3023 RMK A01 T01240024  RH  051%=      5-min Rain = 0
KPPS 052115Z 01018G25KT 12/03 A3023 RMK A01 T01230026  RH  052%=      5-min Rain = 0
KPPS 052120Z 01019G30KT 12/03 A3023 RMK A01 T01190028  RH  055%=      5-min Rain = 0
KPPS 052125Z 01018G23KT 12/03 A3023 RMK A01 T01230025  RH  052%=      5-min Rain = 0
KPPS 052130Z 01019G27KT 13/02 A3023 RMK A01 T01260022  RH  050%=      5-min Rain = 0
KPPS 052135Z 02019G25KT 12/02 A3024 RMK A01 T01220023  RH  052%=      5-min Rain = 0
KPPS 052140Z 01019G24KT 12/02 A3024 RMK A01 T01240023  RH  051%=      5-min Rain = 0
KPPS 052145Z 01021G27KT 12/02 A3024 RMK A01 T01210023  RH  052%=      5-min Rain = 0
KPPS 052150Z 01019G25KT 12/02 A3024 RMK A01 T01230022  RH  051%=      5-min Rain = 0
KPPS 052155Z 01021G29KT 12/02 A3024 RMK A01 T01220023  RH  051%=      5-min Rain = 0
KPPS 052200Z 01021G28KT 12/02 A3025 RMK A01 T01220024  RH  052%=      5-min Rain = 0
KPPS 052205Z 01020G27KT 12/03 A3025 RMK A01 T01200026  RH  053%=      5-min Rain = 0
KPPS 052210Z 00023G29KT 12/03 A3025 RMK A01 T01200025  RH  053%=      5-min Rain = 0
KPPS 052215Z 01021G28KT 12/03 A3025 RMK A01 T01180025  RH  054%=      5-min Rain = 0
KPPS 052220Z 01019G25KT 12/02 A3025 RMK A01 T01180024  RH  054%=      5-min Rain = 0
KPPS 052225Z 01019G28KT 12/02 A3026 RMK A01 T01180024  RH  053%=      5-min Rain = 0
KPPS 052230Z 01023G29KT 12/03 A3026 RMK A01 T01150025  RH  055%=      5-min Rain = 0
KPPS 052235Z 01018G26KT 11/02 A3026 RMK A01 T01130021  RH  054%=      5-min Rain = 0
KPPS 052240Z 01019G25KT 12/02 A3026 RMK A01 T01150019  RH  052%=      5-min Rain = 0
KPPS 052245Z 01019G28KT 11/02 A3026 RMK A01 T01140020  RH  053%=      5-min Rain = 0
KPPS 052250Z 02015G23KT 11/02 A3026 RMK A01 T01130020  RH  054%=      5-min Rain = 0
KPPS 052255Z 02015G22KT 11/02 A3027 RMK A01 T01130021  RH  054%=      5-min Rain = 0
KPPS 052300Z 02016G23KT 11/02 A3027 RMK A01 T01120023  RH  055%=      5-min Rain = 0
KPPS 052305Z 02016G24KT 11/02 A3027 RMK A01 T01110024  RH  056%=      5-min Rain = 0
KPPS 052310Z 02016G23KT 11/02 A3027 RMK A01 T01110024  RH  056%=      5-min Rain = 0
KPPS 052315Z 02015G20KT 11/03 A3027 RMK A01 T01100025  RH  057%=      5-min Rain = 0
KPPS 052320Z 01016G21KT 11/03 A3027 RMK A01 T01100026  RH  057%=      5-min Rain = 0
KPPS 052325Z 02014G21KT 11/03 A3027 RMK A01 T01090027  RH  058%=      5-min Rain = 0
KPPS 052330Z 02014G21KT 11/03 A3027 RMK A01 T01080028  RH  059%=      5-min Rain = 0
KPPS 052335Z 02011G19KT 11/03 A3027 RMK A01 T01080028  RH  059%=      5-min Rain = 0
KPPS 052340Z 02014G19KT 11/03 A3027 RMK A01 T01090029  RH  059%=      5-min Rain = 0
KPPS 052345Z 02013G18KT 11/03 A3028 RMK A01 T01080029  RH  059%=      5-min Rain = 0
KPPS 052350Z 03011G16KT 11/03 A3028 RMK A01 T01080029  RH  059%=      5-min Rain = 0
KPPS 052355Z 02011G17KT 11/03 A3028 RMK A01 T01090029  RH  059%=      5-min Rain = 0
KPPS 060000Z 02012G17KT 11/03 A3028 RMK A01 T01090029  RH  059%=      5-min Rain = 0
KPPS 060005Z 02012KT 11/03 A3028 RMK A01 T01080028  RH  059%=      5-min Rain = 0
KPPS 060010Z 02009KT 11/03 A3028 RMK A01 T01060028  RH  060%=      5-min Rain = 0
KPPS 060015Z 02008KT 11/03 A3029 RMK A01 T01050029  RH  060%=      5-min Rain = 0
KPPS 060020Z 02010KT 11/03 A3029 RMK A01 T01060029  RH  060%=      5-min Rain = 0
KPPS 060025Z 02011KT 11/03 A3029 RMK A01 T01060028  RH  059%=      5-min Rain = 0
KPPS 060030Z 02008KT 11/03 A3029 RMK A01 T01050027  RH  059%=      5-min Rain = 0
KPPS 060035Z 02008KT 10/03 A3029 RMK A01 T01040026  RH  059%=      5-min Rain = 0
KPPS 060040Z 02010KT 10/02 A3029 RMK A01 T01030024  RH  059%=      5-min Rain = 0
KPPS 060045Z 02009KT 10/02 A3029 RMK A01 T01020023  RH  059%=      5-min Rain = 0
KPPS 060050Z 02008KT 10/02 A3029 RMK A01 T01010023  RH  059%=      5-min Rain = 0
KPPS 060055Z 01007KT 10/02 A3029 RMK A01 T00990022  RH  059%=      5-min Rain = 0
KPPS 060100Z 01007KT 10/02 A3029 RMK A01 T00980021  RH  060%=      5-min Rain = 0
KPPS 060105Z 01007KT 09/02 A3029 RMK A01 T00930020  RH  061%=      5-min Rain = 0
KPPS 060110Z 01006KT 09/02 A3029 RMK A01 T00900019  RH  062%=      5-min Rain = 0
KPPS 060115Z 01006KT 09/02 A3029 RMK A01 T00910021  RH  062%=      5-min Rain = 0
KPPS 060120Z 01006KT 09/02 A3029 RMK A01 T00870018  RH  063%=      5-min Rain = 0
KPPS 060125Z 36005KT 08/02 A3029 RMK A01 T00800015  RH  064%=      5-min Rain = 0
KPPS 060130Z 36004KT 08/02 A3029 RMK A01 T00770015  RH  066%=      5-min Rain = 0
KPPS 060135Z 01006KT 08/02 A3029 RMK A01 T00760016  RH  067%=      5-min Rain = 0
KPPS 060140Z 36005KT 07/01 A303 RMK A01 T00740014  RH  066%=      5-min Rain = 0
KPPS 060145Z 35005KT 07/01 A303 RMK A01 T00680012  RH  068%=      5-min Rain = 0
KPPS 060150Z 35005KT 07/01 A303 RMK A01 T00660011  RH  069%=      5-min Rain = 0
KPPS 060155Z 35005KT 06/01 A303 RMK A01 T00640011  RH  070%=      5-min Rain = 0
KPPS 060200Z 34005KT 06/01 A3031 RMK A01 T00630010  RH  070%=      5-min Rain = 0
KPPS 060205Z 34005KT 06/01 A3031 RMK A01 T00610010  RH  071%=      5-min Rain = 0
KPPS 060210Z 34006KT 06/01 A3031 RMK A01 T00610010  RH  071%=      5-min Rain = 0
KPPS 060215Z 33006KT 06/01 A3031 RMK A01 T00590008  RH  071%=      5-min Rain = 0
KPPS 060220Z 33005KT 06/01 A3031 RMK A01 T00550006  RH  072%=      5-min Rain = 0
KPPS 060225Z 34005KT 05/01 A3032 RMK A01 T00530007  RH  073%=      5-min Rain = 0
KPPS 060230Z 35005KT 05/01 A3032 RMK A01 T00530007  RH  073%=      5-min Rain = 0
KPPS 060235Z 35005KT 05/01 A3032 RMK A01 T00530008  RH  073%=      5-min Rain = 0
KPPS 060240Z 35006KT 05/01 A3032 RMK A01 T00540007  RH  073%=      5-min Rain = 0
KPPS 060245Z 35006KT 05/01 A3032 RMK A01 T00510005  RH  073%=      5-min Rain = 0
KPPS 060250Z 35006KT 05/01 A3032 RMK A01 T00510006  RH  074%=      5-min Rain = 0
KPPS 060255Z 35006KT 05/01 A3032 RMK A01 T00520007  RH  074%=      5-min Rain = 0
KPPS 060300Z 34006KT 05/01 A3032 RMK A01 T00510006  RH  074%=      5-min Rain = 0
KPPS 060305Z 33006KT 05/00 A3032 RMK A01 T00480004  RH  074%=      5-min Rain = 0
KPPS 060310Z 34006KT 05/00 A3032 RMK A01 T00460004  RH  075%=      5-min Rain = 0
KPPS 060315Z 34006KT 05/00 A3032 RMK A01 T00450004  RH  076%=      5-min Rain = 0
KPPS 060320Z 33005KT 04/00 A3033 RMK A01 T00440003  RH  076%=      5-min Rain = 0
KPPS 060325Z 33005KT 04/00 A3033 RMK A01 T00430003  RH  076%=      5-min Rain = 0
KPPS 060330Z 33005KT 04/00 A3033 RMK A01 T00430002  RH  076%=      5-min Rain = 0
KPPS 060335Z 33005KT 04/00 A3033 RMK A01 T00440003  RH  075%=      5-min Rain = 0
KPPS 060340Z 33006KT 04/00 A3033 RMK A01 T00430001  RH  075%=      5-min Rain = 0
KPPS 060345Z 33006KT 04/00 A3033 RMK A01 T004100-0  RH  075%=      5-min Rain = 0
KPPS 060350Z 33007KT 04/M00 A3033 RMK A01 T00391002  RH  075%=      5-min Rain = 0
KPPS 060355Z 33007KT 04/M00 A3033 RMK A01 T00361004  RH  076%=      5-min Rain = 0
KPPS 060400Z 34007KT 03/M01 A3033 RMK A01 T00331005  RH  077%=      5-min Rain = 0
KPPS 060405Z 34007KT 03/M01 A3033 RMK A01 T00331005  RH  077%=      5-min Rain = 0
KPPS 060410Z 34007KT 03/M00 A3033 RMK A01 T00341003  RH  077%=      5-min Rain = 0
KPPS 060415Z 33006KT 03/M00 A3033 RMK A01 T00341004  RH  077%=      5-min Rain = 0
KPPS 060420Z 33007KT 03/M00 A3034 RMK A01 T00331003  RH  078%=      5-min Rain = 0
KPPS 060425Z 33007KT 03/M00 A3034 RMK A01 T00331004  RH  078%=      5-min Rain = 0
KPPS 060430Z 33007KT 03/M01 A3034 RMK A01 T00301006  RH  078%=      5-min Rain = 0
KPPS 060435Z 33007KT 03/M01 A3034 RMK A01 T00271007  RH  079%=      5-min Rain = 0
KPPS 060440Z 33006KT 03/M01 A3034 RMK A01 T00271006  RH  080%=      5-min Rain = 0
KPPS 060445Z 33007KT 03/M01 A3034 RMK A01 T00281005  RH  080%=      5-min Rain = 0
KPPS 060450Z 33006KT 03/M01 A3034 RMK A01 T00291005  RH  080%=      5-min Rain = 0
KPPS 060455Z 33006KT 03/M01 A3034 RMK A01 T00291005  RH  080%=      5-min Rain = 0
KPPS 060500Z 33006KT 03/M01 A3034 RMK A01 T00281005  RH  080%=      5-min Rain = 0
KPPS 060505Z 33006KT 03/M01 A3034 RMK A01 T00281005  RH  080%=      5-min Rain = 0
KPPS 060510Z 33006KT 03/M01 A3034 RMK A01 T00271006  RH  080%=      5-min Rain = 0
KPPS 060515Z 34006KT 03/M01 A3034 RMK A01 T00271005  RH  080%=      5-min Rain = 0
KPPS 060520Z 35006KT 03/M01 A3034 RMK A01 T00271005  RH  080%=      5-min Rain = 0
KPPS 060525Z 35006KT 03/M01 A3033 RMK A01 T00261005  RH  080%=      5-min Rain = 0
KPPS 060530Z 35005KT 03/M01 A3033 RMK A01 T00261005  RH  081%=      5-min Rain = 0
KPPS 060535Z 35005KT 03/M00 A3033 RMK A01 T00271004  RH  081%=      5-min Rain = 0
KPPS 060540Z 36005KT 03/M00 A3033 RMK A01 T00271004  RH  081%=      5-min Rain = 0
KPPS 060545Z 00006KT 03/M00 A3033 RMK A01 T00281003  RH  081%=      5-min Rain = 0
KPPS 060550Z 00006KT 03/M01 A3034 RMK A01 T00261007  RH  080%=      5-min Rain = 0
KPPS 060555Z 36006KT 02/M01 A3034 RMK A01 T00221009  RH  081%=      5-min Rain = 0

Page generated in 0.0086 seconds.